createdAt,value
2019-04-01T00:01:53.039Z,4.80
2019-04-01T00:04:23.350Z,5.13
2019-04-01T00:06:53.734Z,3.77
2019-04-01T00:09:24.068Z,4.20
2019-04-01T00:11:54.359Z,4.30
2019-04-01T00:14:24.724Z,4.47
2019-04-01T00:16:55.014Z,3.53
2019-04-01T00:19:25.436Z,5.27
2019-04-01T00:21:55.728Z,4.07
2019-04-01T00:24:26.067Z,3.50
2019-04-01T00:26:56.379Z,3.87
2019-04-01T00:29:26.063Z,4.83
2019-04-01T00:31:56.275Z,3.43
2019-04-01T00:34:25.947Z,4.30
2019-04-01T00:36:56.163Z,4.00
2019-04-01T00:39:26.499Z,4.30
2019-04-01T00:42:24.723Z,4.73
2019-04-01T00:44:55.041Z,5.87
2019-04-01T00:47:25.367Z,3.90
2019-04-01T00:49:55.728Z,4.33
2019-04-01T00:52:25.376Z,4.67
2019-04-01T00:54:55.650Z,4.37
2019-04-01T00:57:25.955Z,4.93
2019-04-01T00:59:56.279Z,5.30
2019-04-01T01:02:26.604Z,3.90
2019-04-01T01:04:56.979Z,4.27
2019-04-01T01:07:27.267Z,3.85
2019-04-01T01:09:57.578Z,3.93
2019-04-01T01:12:27.884Z,3.80
2019-04-01T01:14:58.193Z,4.30
2019-04-01T01:17:28.504Z,4.80
2019-04-01T01:19:58.172Z,3.83
2019-04-01T01:22:28.366Z,3.97
2019-04-01T01:24:58.700Z,4.30
2019-04-01T01:27:28.356Z,4.33
2019-04-01T01:29:58.570Z,4.73
2019-04-01T01:32:28.211Z,4.67
2019-04-01T01:34:58.407Z,3.77
2019-04-01T01:37:28.379Z,4.60
2019-04-01T01:39:57.956Z,4.30
2019-04-01T01:42:28.183Z,4.27
2019-04-01T01:44:58.591Z,4.57
2019-04-01T01:47:28.259Z,3.83
2019-04-01T01:49:58.467Z,5.63
2019-04-01T01:52:28.806Z,4.43
2019-04-01T01:54:59.099Z,4.10
2019-04-01T01:57:28.754Z,4.70
2019-04-01T01:59:58.958Z,4.40
2019-04-01T02:02:28.711Z,4.73
2019-04-01T02:04:58.909Z,4.27
2019-04-01T02:07:28.553Z,4.50
2019-04-01T02:09:58.106Z,4.60
2019-04-01T02:12:28.478Z,4.63
2019-04-01T02:14:58.798Z,4.50
2019-04-01T02:17:28.498Z,4.43
2019-04-01T02:19:58.899Z,4.70
2019-04-01T02:22:29.221Z,4.95
2019-04-01T02:24:59.523Z,4.10
2019-04-01T02:27:30.049Z,4.85
2019-04-01T02:30:00.575Z,4.77
2019-04-01T02:32:30.386Z,4.27
2019-04-01T02:35:00.576Z,3.97
2019-04-01T02:37:30.275Z,4.53
2019-04-01T02:40:00.768Z,4.97
2019-04-01T02:42:31.199Z,5.07
2019-04-01T02:45:01.523Z,5.23
2019-04-01T02:47:31.873Z,5.50
2019-04-01T02:50:02.163Z,5.17
2019-04-01T02:52:32.495Z,3.95
2019-04-01T02:55:06.683Z,4.70
2019-04-01T02:57:34.741Z,4.63
2019-04-01T03:00:05.348Z,5.23
2019-04-01T03:02:35.676Z,5.08
2019-04-01T03:05:06.792Z,5.60
2019-04-01T03:07:37.109Z,5.10
2019-04-01T03:10:07.650Z,5.17
2019-04-01T03:12:37.286Z,5.35
2019-04-01T03:15:06.872Z,5.33
2019-04-01T03:17:37.090Z,4.77
2019-04-01T03:20:07.139Z,4.50
2019-04-01T03:22:37.364Z,5.23
2019-04-01T03:25:07.676Z,5.50
2019-04-01T03:27:37.998Z,4.90
2019-04-01T03:30:07.664Z,6.00
2019-04-01T03:32:44.231Z,5.60
2019-04-01T03:35:09.847Z,5.23
2019-04-01T03:37:39.556Z,4.83
2019-04-01T03:40:09.710Z,5.53
2019-04-01T03:42:40.024Z,5.90
2019-04-01T03:45:10.968Z,4.97
2019-04-01T03:47:40.705Z,4.70
2019-04-01T03:50:10.930Z,4.63
2019-04-01T03:52:40.641Z,5.80
2019-04-01T03:55:10.968Z,5.37
2019-04-01T03:57:40.612Z,4.87
2019-04-01T04:00:11.734Z,5.53
2019-04-01T04:02:41.392Z,4.90
2019-04-01T04:05:11.610Z,5.83
2019-04-01T04:07:41.396Z,5.40
2019-04-01T04:10:11.073Z,5.47
2019-04-01T04:12:41.267Z,5.27
2019-04-01T04:15:10.937Z,5.63
2019-04-01T04:17:41.201Z,5.40
2019-04-01T04:20:10.836Z,5.50
2019-04-01T04:22:41.070Z,4.63
2019-04-01T04:25:10.723Z,5.33
2019-04-01T04:27:40.984Z,5.40
2019-04-01T04:30:10.927Z,5.47
2019-04-01T04:32:41.173Z,5.27
2019-04-01T04:35:10.827Z,4.77
2019-04-01T04:37:40.422Z,5.33
2019-04-01T04:40:10.670Z,6.80
2019-04-01T04:42:40.975Z,5.33
2019-04-01T04:45:10.631Z,5.73
2019-04-01T04:47:40.863Z,5.37
2019-04-01T04:50:11.379Z,6.13
2019-04-01T04:52:41.667Z,5.57
2019-04-01T04:55:11.325Z,5.70
2019-04-01T04:57:41.536Z,6.20
2019-04-01T05:00:11.323Z,5.80
2019-04-01T05:02:41.519Z,5.77
2019-04-01T05:05:11.198Z,5.97
2019-04-01T05:07:41.512Z,6.73
2019-04-01T05:10:11.316Z,5.80
2019-04-01T05:12:42.212Z,5.60
2019-04-01T05:15:11.995Z,5.97
2019-04-01T05:17:42.231Z,6.47
2019-04-01T05:20:12.547Z,6.77
2019-04-01T05:22:43.479Z,5.77
2019-04-01T05:25:13.820Z,5.80
2019-04-01T05:27:45.697Z,6.87
2019-04-01T05:30:16.181Z,5.73
2019-04-01T05:32:47.602Z,7.60
2019-04-01T05:35:18.939Z,6.40
2019-04-01T05:37:48.603Z,6.03
2019-04-01T05:40:18.818Z,6.00
2019-04-01T05:42:49.102Z,7.90
2019-04-01T05:45:20.352Z,7.07
2019-04-01T05:47:52.886Z,6.73
2019-04-01T05:50:23.158Z,6.67
2019-04-01T05:52:52.827Z,6.33
2019-04-01T05:55:22.408Z,6.23
2019-04-01T05:57:52.089Z,7.57
2019-04-01T06:00:28.208Z,7.57
2019-04-01T06:02:58.683Z,8.97
2019-04-01T06:05:29.158Z,6.47
2019-04-01T06:07:59.559Z,6.80
2019-04-01T06:10:29.871Z,6.97
2019-04-01T06:13:00.479Z,9.20
2019-04-01T06:15:30.799Z,7.47
2019-04-01T06:18:00.494Z,7.03
2019-04-01T06:20:30.726Z,7.00
2019-04-01T06:23:00.381Z,8.03
2019-04-01T06:25:30.632Z,7.33
2019-04-01T06:28:00.296Z,7.47
2019-04-01T06:30:30.729Z,9.17
2019-04-01T06:33:00.964Z,7.97
2019-04-01T06:35:31.003Z,8.33
2019-04-01T06:38:00.627Z,8.50
2019-04-01T06:40:30.475Z,8.03
2019-04-01T06:43:00.718Z,8.33
2019-04-01T06:45:31.278Z,6.83
2019-04-01T06:48:00.926Z,6.87
2019-04-01T06:50:31.139Z,5.40
2019-04-01T06:53:01.383Z,6.27
2019-04-01T06:55:30.959Z,5.37
2019-04-01T06:58:00.534Z,5.30
2019-04-01T07:00:30.114Z,5.77
2019-04-01T07:02:59.675Z,4.40
2019-04-01T07:05:29.919Z,4.87
2019-04-01T07:07:59.576Z,5.10
2019-04-01T07:10:29.918Z,5.03
2019-04-01T07:12:59.608Z,4.80
2019-04-01T07:15:29.774Z,4.70
2019-04-01T07:17:59.530Z,4.97
2019-04-01T07:20:29.130Z,5.13
2019-04-01T07:22:59.468Z,5.07
2019-04-01T07:25:29.156Z,4.17
2019-04-01T07:27:59.207Z,5.13
2019-04-01T07:30:29.427Z,4.67
2019-04-01T07:32:59.906Z,5.30
2019-04-01T07:35:29.566Z,4.35
2019-04-01T07:37:59.714Z,5.03
2019-04-01T07:40:29.405Z,6.57
2019-04-01T07:43:00.069Z,4.00
2019-04-01T07:45:29.815Z,4.57
2019-04-01T07:47:59.417Z,4.83
2019-04-01T07:50:29.634Z,4.13
2019-04-01T07:52:59.983Z,4.63
2019-04-01T07:55:29.787Z,4.30
2019-04-01T07:57:59.982Z,4.43
2019-04-01T08:00:30.228Z,4.37
2019-04-01T08:03:00.547Z,4.17
2019-04-01T08:05:31.033Z,3.87
2019-04-01T08:08:01.286Z,3.93
2019-04-01T08:10:31.548Z,4.33
2019-04-01T08:13:01.222Z,4.40
2019-04-01T08:15:31.431Z,4.50
2019-04-01T08:18:01.117Z,4.00
2019-04-01T08:20:31.431Z,4.30
2019-04-01T08:23:01.865Z,4.27
2019-04-01T08:25:32.176Z,4.43
2019-04-01T08:28:02.500Z,4.70
2019-04-01T08:30:32.836Z,5.07
2019-04-01T08:33:02.519Z,4.90
2019-04-01T08:35:32.762Z,5.10
2019-04-01T08:38:03.105Z,4.23
2019-04-01T08:40:33.423Z,4.37
2019-04-01T08:43:03.839Z,4.43
2019-04-01T08:45:33.495Z,5.03
2019-04-01T08:48:03.711Z,4.60
2019-04-01T08:50:33.413Z,5.27
2019-04-01T08:53:03.619Z,4.40
2019-04-01T08:55:34.162Z,4.90
2019-04-01T08:58:04.605Z,4.37
2019-04-01T09:00:34.955Z,5.13
2019-04-01T09:03:05.384Z,5.43
2019-04-01T09:05:35.695Z,4.93
2019-04-01T09:08:06.103Z,5.33
2019-04-01T09:10:36.258Z,5.53
2019-04-01T09:13:06.786Z,5.20
2019-04-01T09:15:37.079Z,5.87
2019-04-01T09:18:06.747Z,5.40
2019-04-01T09:20:36.964Z,6.03
2019-04-01T09:23:07.337Z,5.53
2019-04-01T09:25:37.022Z,6.87
2019-04-01T09:28:06.690Z,6.73
2019-04-01T09:30:37.411Z,6.40
2019-04-01T09:33:07.727Z,6.23
2019-04-01T09:35:40.712Z,6.03
2019-04-01T09:38:10.015Z,6.10
2019-04-01T09:40:40.315Z,6.00
2019-04-01T09:43:13.916Z,6.10
2019-04-01T09:45:42.605Z,6.27
2019-04-01T09:48:12.933Z,5.97
2019-04-01T09:50:42.639Z,7.37
2019-04-01T09:53:12.854Z,6.00
2019-04-01T09:55:42.535Z,6.33
2019-04-01T09:58:12.768Z,6.07
2019-04-01T10:00:43.129Z,6.30
2019-04-01T10:03:13.471Z,5.97
2019-04-01T10:05:43.139Z,5.67
2019-04-01T10:08:13.427Z,6.23
2019-04-01T10:10:43.773Z,6.03
2019-04-01T10:13:14.135Z,7.40
2019-04-01T10:15:44.463Z,7.03
2019-04-01T10:18:14.127Z,8.00
2019-04-01T10:20:44.533Z,7.90
2019-04-01T10:23:14.943Z,7.17
2019-04-01T10:25:46.548Z,7.53
2019-04-01T10:28:16.891Z,7.43
2019-04-01T10:30:47.404Z,7.13
2019-04-01T10:33:17.720Z,7.13
2019-04-01T10:35:47.423Z,7.10
2019-04-01T10:38:17.750Z,7.80
2019-04-01T10:40:48.130Z,7.73
2019-04-01T10:43:18.566Z,7.10
2019-04-01T10:45:48.897Z,6.40
2019-04-01T10:48:19.498Z,6.60
2019-04-01T10:50:50.144Z,7.57
2019-04-01T10:53:20.540Z,7.70
2019-04-01T10:55:50.855Z,7.20
2019-04-01T10:58:21.001Z,6.43
2019-04-01T11:00:50.612Z,5.83
2019-04-01T11:03:20.725Z,6.37
2019-04-01T11:05:50.306Z,5.23
2019-04-01T11:08:20.788Z,5.83
2019-04-01T11:10:51.026Z,6.67
2019-04-01T11:13:21.866Z,7.20
2019-04-01T11:15:51.802Z,6.40
2019-04-01T11:18:21.381Z,5.90
2019-04-01T11:20:51.022Z,6.17
2019-04-01T11:23:21.415Z,6.77
2019-04-01T11:25:56.600Z,5.53
2019-04-01T11:28:26.262Z,6.20
2019-04-01T11:30:56.560Z,6.40
2019-04-01T11:33:26.300Z,7.20
2019-04-01T11:35:56.519Z,7.10
2019-04-01T11:38:26.205Z,6.40
2019-04-01T11:40:56.495Z,6.83
2019-04-01T11:43:26.852Z,7.10
2019-04-01T11:45:56.529Z,7.07
2019-04-01T11:48:26.132Z,6.12
2019-04-01T11:50:56.353Z,6.93
2019-04-01T11:53:26.019Z,7.03
2019-04-01T11:55:55.615Z,8.97
2019-04-01T11:58:25.201Z,8.60
2019-04-01T12:00:54.787Z,8.17
2019-04-01T12:03:24.683Z,8.70
2019-04-01T12:05:54.366Z,8.03
2019-04-01T12:08:25.060Z,8.13
2019-04-01T12:10:55.500Z,8.27
2019-04-01T12:13:25.744Z,7.60
2019-04-01T12:15:55.434Z,8.00
2019-04-01T12:18:25.002Z,8.47
2019-04-01T12:20:55.244Z,7.97
2019-04-01T12:23:24.919Z,8.70
2019-04-01T12:25:55.189Z,7.90
2019-04-01T12:28:25.526Z,8.53
2019-04-01T12:30:55.844Z,8.47
2019-04-01T12:33:26.641Z,7.60
2019-04-01T12:35:56.363Z,7.63
2019-04-01T12:38:26.615Z,8.07
2019-04-01T12:40:56.925Z,8.73
2019-04-01T12:43:27.259Z,8.57
2019-04-01T12:45:56.977Z,8.53
2019-04-01T12:48:26.782Z,8.93
2019-04-01T12:50:56.359Z,9.40
2019-04-01T12:53:25.903Z,9.58
2019-04-01T12:55:55.463Z,8.30
2019-04-01T12:58:25.433Z,8.63
2019-04-01T13:00:55.347Z,9.27
2019-04-01T13:03:25.599Z,9.10
2019-04-01T13:05:55.951Z,8.83
2019-04-01T13:08:25.652Z,9.07
2019-04-01T13:10:56.714Z,9.23
2019-04-01T13:13:27.154Z,9.73
2019-04-01T13:15:57.503Z,10.77
2019-04-01T13:18:27.823Z,9.70
2019-04-01T13:20:57.686Z,11.57
2019-04-01T13:23:27.936Z,10.03
2019-04-01T13:25:57.611Z,10.37
2019-04-01T13:28:27.214Z,10.00
2019-04-01T13:30:56.892Z,10.23
2019-04-01T13:33:27.223Z,9.80
2019-04-01T13:35:57.680Z,9.40
2019-04-01T13:38:27.577Z,10.90
2019-04-01T13:40:57.195Z,10.13
2019-04-01T13:43:26.769Z,10.10
2019-04-01T13:45:56.435Z,9.77
2019-04-01T13:48:26.061Z,10.30
2019-04-01T13:50:56.296Z,9.67
2019-04-01T13:53:25.971Z,7.57
2019-04-01T13:55:56.231Z,7.57
2019-04-01T13:58:25.921Z,8.53
2019-04-01T14:00:55.535Z,8.83
2019-04-01T14:03:25.122Z,8.40
2019-04-01T14:05:55.406Z,8.37
2019-04-01T14:08:25.059Z,8.05
2019-04-01T14:10:54.856Z,8.00
2019-04-01T14:13:25.093Z,7.97
2019-04-01T14:15:55.431Z,6.30
2019-04-01T14:18:25.098Z,7.20
2019-04-01T14:20:54.689Z,7.50
2019-04-01T14:23:24.891Z,7.23
2019-04-01T14:25:55.215Z,6.80
2019-04-01T14:28:24.867Z,7.07
2019-04-01T14:30:55.133Z,6.57
2019-04-01T14:33:25.440Z,15.47
2019-04-01T14:35:55.791Z,6.83
2019-04-01T14:38:25.576Z,6.80
2019-04-01T14:40:58.182Z,6.63
2019-04-01T14:43:31.130Z,7.20
2019-04-01T14:46:00.035Z,6.17
2019-04-01T14:48:30.614Z,7.13
2019-04-01T14:51:01.117Z,6.73
2019-04-01T14:53:31.505Z,6.50
2019-04-01T14:56:02.011Z,7.23
2019-04-01T14:58:31.692Z,6.70
2019-04-01T15:01:02.387Z,7.30
2019-04-01T15:03:32.156Z,6.60
2019-04-01T15:06:02.511Z,6.37
2019-04-01T15:08:32.233Z,6.97
2019-04-01T15:11:02.528Z,6.60
2019-04-01T15:13:32.242Z,6.57
2019-04-01T15:16:01.887Z,7.13
2019-04-01T15:18:34.185Z,7.73
2019-04-01T15:21:03.427Z,7.07
2019-04-01T15:23:33.123Z,7.53
2019-04-01T15:26:03.554Z,7.37
2019-04-01T15:28:33.366Z,7.40
2019-04-01T15:31:03.023Z,7.27
2019-04-01T15:33:33.339Z,7.37
2019-04-01T15:36:04.229Z,7.70
2019-04-01T15:38:34.115Z,7.00
2019-04-01T15:41:04.590Z,7.60
2019-04-01T15:43:34.295Z,7.40
2019-04-01T15:46:04.332Z,7.73
2019-04-01T15:48:34.572Z,7.50
2019-04-01T15:51:04.175Z,7.20
2019-04-01T15:53:34.880Z,7.33
2019-04-01T15:56:05.573Z,7.10
2019-04-01T15:58:35.890Z,7.50
2019-04-01T16:01:06.244Z,7.13
2019-04-01T16:03:36.834Z,7.93
2019-04-01T16:06:07.775Z,8.17
2019-04-01T16:08:37.676Z,9.13
2019-04-01T16:11:07.929Z,7.97
2019-04-01T16:13:38.267Z,8.13
2019-04-01T16:16:07.958Z,8.60
2019-04-01T16:18:37.560Z,7.60
2019-04-01T16:21:07.151Z,9.43
2019-04-01T16:23:36.886Z,8.75
2019-04-01T16:26:09.574Z,8.97
2019-04-01T16:28:38.731Z,8.90
2019-04-01T16:31:09.178Z,8.80
2019-04-01T16:33:39.052Z,8.97
2019-04-01T16:36:08.715Z,9.03
2019-04-01T16:38:38.414Z,8.67
2019-04-01T16:41:07.974Z,9.07
2019-04-01T16:43:38.319Z,10.03
2019-04-01T16:46:07.983Z,9.10
2019-04-01T16:48:38.662Z,10.27
2019-04-01T16:51:09.176Z,9.20
2019-04-01T16:53:39.516Z,9.47
2019-04-01T16:56:09.863Z,9.03
2019-04-01T16:58:40.282Z,9.30
2019-04-01T17:01:10.696Z,9.50
2019-04-01T17:03:41.095Z,9.37
2019-04-01T17:06:11.406Z,9.57
2019-04-01T17:08:41.115Z,9.97
2019-04-01T17:11:10.727Z,9.93
2019-04-01T17:13:40.975Z,9.77
2019-04-01T17:16:11.343Z,9.27
2019-04-01T17:18:42.303Z,10.10
2019-04-01T17:21:12.059Z,9.87
2019-04-01T17:23:42.334Z,11.47
2019-04-01T17:26:12.019Z,11.00
2019-04-01T17:28:42.279Z,10.07
2019-04-01T17:31:12.658Z,9.37
2019-04-01T17:33:43.039Z,10.10
2019-04-01T17:36:15.748Z,10.30
2019-04-01T17:38:47.967Z,11.20
2019-04-01T17:41:16.667Z,10.30
2019-04-01T17:43:46.948Z,10.87
2019-04-01T17:46:16.655Z,10.70
2019-04-01T17:48:46.922Z,11.33
2019-04-01T17:51:16.626Z,10.93
2019-04-01T17:53:46.909Z,11.93
2019-04-01T17:56:17.985Z,11.63
2019-04-01T17:58:48.335Z,11.70
2019-04-01T18:01:18.944Z,11.93
2019-04-01T18:03:48.552Z,11.83
2019-04-01T18:06:19.734Z,12.03
2019-04-01T18:08:50.170Z,13.10
2019-04-01T18:11:19.887Z,12.80
2019-04-01T18:13:50.961Z,11.60
2019-04-01T18:16:20.891Z,12.50
2019-04-01T18:18:51.201Z,12.27
2019-04-01T18:21:20.906Z,13.03
2019-04-01T18:23:51.252Z,13.57
2019-04-01T18:26:21.054Z,12.77
2019-04-01T18:28:50.658Z,9.40
2019-04-01T18:31:20.251Z,8.00
2019-04-01T18:33:56.066Z,8.57
2019-04-01T18:36:21.309Z,7.97
2019-04-01T18:38:52.420Z,7.90
2019-04-01T18:41:22.122Z,7.73
2019-04-01T18:43:51.747Z,6.90
2019-04-01T18:46:23.317Z,7.93
2019-04-01T18:48:53.280Z,7.47
2019-04-01T18:51:22.962Z,7.33
2019-04-01T18:53:53.298Z,7.67
2019-04-01T18:56:22.986Z,7.33
2019-04-01T18:58:53.143Z,8.30
2019-04-01T19:01:23.555Z,7.50
2019-04-01T19:03:53.835Z,7.57
2019-04-01T19:06:23.499Z,8.67
2019-04-01T19:08:53.093Z,8.80
2019-04-01T19:11:22.720Z,8.23
2019-04-01T19:13:52.415Z,8.47
2019-04-01T19:16:23.099Z,8.53
2019-04-01T19:18:53.022Z,7.53
2019-04-01T19:21:22.594Z,8.70
2019-04-01T19:23:52.323Z,8.37
2019-04-01T19:26:21.923Z,8.47
2019-04-01T19:28:52.251Z,8.80
2019-04-01T19:31:22.721Z,8.77
2019-04-01T19:33:53.128Z,9.70
2019-04-01T19:36:22.867Z,10.00
2019-04-01T19:38:54.269Z,8.73
2019-04-01T19:41:24.114Z,9.37
2019-04-01T19:43:54.317Z,8.73
2019-04-01T19:46:23.988Z,9.80
2019-04-01T19:48:54.299Z,9.17
2019-04-01T19:51:24.004Z,9.70
2019-04-01T19:53:54.288Z,8.93
2019-04-01T19:56:23.948Z,8.27
2019-04-01T19:58:54.428Z,9.23
2019-04-01T20:01:24.897Z,9.67
2019-04-01T20:03:55.286Z,9.90
2019-04-01T20:06:24.942Z,10.27
2019-04-01T20:08:55.251Z,10.33
2019-04-01T20:11:24.935Z,10.97
2019-04-01T20:13:55.209Z,10.43
2019-04-01T20:16:25.117Z,10.23
2019-04-01T20:18:54.683Z,10.80
2019-04-01T20:21:24.942Z,10.33
2019-04-01T20:23:54.956Z,10.40
2019-04-01T20:26:25.228Z,10.47
2019-04-01T20:28:55.603Z,10.10
2019-04-01T20:31:25.953Z,11.03
2019-04-01T20:33:55.820Z,10.23
2019-04-01T20:36:28.767Z,10.37
2019-04-01T20:38:57.404Z,10.93
2019-04-01T20:41:27.718Z,11.30
2019-04-01T20:43:57.469Z,12.40
2019-04-01T20:46:27.139Z,11.23
2019-04-01T20:48:56.764Z,12.53
2019-04-01T20:51:27.027Z,11.87
2019-04-01T20:53:56.699Z,12.30
2019-04-01T20:56:26.272Z,12.83
2019-04-01T20:58:56.088Z,12.07
2019-04-01T21:01:26.411Z,12.20
2019-04-01T21:03:56.110Z,12.83
2019-04-01T21:06:26.331Z,13.23
2019-04-01T21:08:56.032Z,12.77
2019-04-01T21:11:25.603Z,13.23
2019-04-01T21:13:55.208Z,13.50
2019-04-01T21:16:25.431Z,13.40
2019-04-01T21:18:55.128Z,14.33
2019-04-01T21:21:24.710Z,14.83
2019-04-01T21:23:54.303Z,13.60
2019-04-01T21:26:24.565Z,14.30
2019-04-01T21:28:54.443Z,15.30
2019-04-01T21:31:24.768Z,14.37
2019-04-01T21:33:54.459Z,14.60
2019-04-01T21:36:24.695Z,14.77
2019-04-01T21:38:54.460Z,14.93
2019-04-01T21:41:25.385Z,16.43
2019-04-01T21:43:55.505Z,16.13
2019-04-01T21:46:25.671Z,16.73
2019-04-01T21:48:55.362Z,16.77
2019-04-01T21:51:25.582Z,16.60
2019-04-01T21:53:55.304Z,16.00
2019-04-01T21:56:25.550Z,17.17
2019-04-01T21:58:55.226Z,17.23
2019-04-01T22:01:24.811Z,17.95
2019-04-01T22:03:55.447Z,19.77
2019-04-01T22:06:25.777Z,18.30
2019-04-01T22:08:55.438Z,17.83
2019-04-01T22:11:25.729Z,18.20
2019-04-01T22:13:56.167Z,17.43
2019-04-01T22:16:27.036Z,19.17
2019-04-01T22:18:57.350Z,19.90
2019-04-01T22:21:27.667Z,19.33
2019-04-01T22:23:57.998Z,20.77
2019-04-01T22:26:28.446Z,20.53
2019-04-01T22:28:58.755Z,20.07
2019-04-01T22:31:29.094Z,20.43
2019-04-01T22:33:59.451Z,20.90
2019-04-01T22:36:31.173Z,21.37
2019-04-01T22:39:01.816Z,23.00
2019-04-01T22:41:32.146Z,22.80
2019-04-01T22:44:02.479Z,23.53
2019-04-01T22:46:34.607Z,21.73
2019-04-01T22:49:04.781Z,23.40
2019-04-01T22:51:35.076Z,26.27
2019-04-01T22:54:04.743Z,25.80
2019-04-01T22:56:35.023Z,23.83
2019-04-01T22:59:05.334Z,26.30
2019-04-01T23:01:35.026Z,26.07
2019-04-01T23:04:05.335Z,25.43
2019-04-01T23:06:35.372Z,26.30
2019-04-01T23:09:07.937Z,26.83
2019-04-01T23:11:38.285Z,24.82
2019-04-01T23:14:08.610Z,25.80
2019-04-01T23:16:38.955Z,27.37
2019-04-01T23:19:09.260Z,28.47
2019-04-01T23:21:39.655Z,27.30
2019-04-01T23:24:09.991Z,26.53
2019-04-01T23:26:40.339Z,25.63
2019-04-01T23:29:10.660Z,26.43
2019-04-01T23:31:41.002Z,26.03
2019-04-01T23:34:11.317Z,23.90
2019-04-01T23:36:41.673Z,27.45
2019-04-01T23:39:12.156Z,26.50
2019-04-01T23:41:42.507Z,23.97
2019-04-01T23:44:12.820Z,24.30
2019-04-01T23:46:43.135Z,27.07
2019-04-01T23:49:13.484Z,26.13
2019-04-01T23:51:43.826Z,25.73
2019-04-01T23:54:14.166Z,26.57
2019-04-01T23:56:44.506Z,25.40
2019-04-01T23:59:14.189Z,29.47
